Sanliurfa, Turkey

11:13 PM EEST on October 25, 2014 (GMT +0300)
SANLIURFA GAP | Change Station
CLOSE
Current Station
Airport
Location: SANLIURFA GAP,
Elevation: 2707 ft
Nearby Weather Stations

Elev 2707 ft 37.45 °N, 38.90 °E | Updated 23 minutes ago

Clear
Clear
59 °F
Feels Like 59 °F
N
6
Wind Variable Wind from SW

Today
High -- | Low -- °F
--% Chance of Precip.
Yesterday
High -- | Low -- °F
Precip. -- in
6:41 AM 5:35 PM
Waxing Crescent, 4% visible
Pressure 30.09 in
Visibility -9999.0 miles
Clouds
Dew Point 46 °F
Humidity 63%
Rainfall 0.00 in
Snow Depth Not available.
UV Not available.
Pollen Not available.
Air Quality Not available.
Flu Activity Not available.
METAR LTCS 251950Z 23005KT CAVOK 15/08 Q1019

More Conditions Fewer Conditions

Pressure 30.09 in
Visibility -9999.0 miles
Clouds
Dew Point 46 °F
Humidity 63%
Rainfall 0.00 in
Snow Depth Not available.
UV Not available.
Pollen Not available.
Air Quality Not available.
Flu Activity Not available.
METAR LTCS 251950Z 23005KT CAVOK 15/08 Q1019

More Conditions Fewer Conditions

10-Day Weather Forecast

Almanac

Astronomy

Oct. 25, 2014 Rise Set
Actual Time 6:41 AM EEST 5:35 PM EEST
Civil Twilight 6:15 AM EEST 6:02 PM EEST
Nautical Twilight 5:44 AM EEST 6:32 PM EEST
Astronomical Twilight 5:14 AM EEST 7:02 PM EEST
Moon 7:58 AM EEST 6:44 PM EEST
Length of Visible Light 11h 46m
Length of Day
10h 53m
Tomorrow will be 2m 11s shorter.
Waxing Crescent, 4% of the Moon is Illuminated
Today
Waxing Crescent
Oct 30
First Quarter
Nov 6
Full
Nov 14
Last Quarter
Nov 22
New

Today's Extremes

Country Highs Country Lows

Community

WunderPhotos

Upload Photos

1,764,976 photos uploaded!

Nearby

Snow Depth

Not available.

Earthquake Activity

City Distance Mag. Time & Date
No recent earthquake activity has been reported nearby.
Minimum magnitude displayed is 2.5.

Coastal Water Temperatures

Place Temperature
No Stations Reporting

Nearby Weather Stations